OMAM/DHF METAR and TAF weather

Enter ICAO airport designator
Station Type Date Time Source
OMAM METAR 2019/07/14 06:00 UTC NOAA

OMAM 140600Z 18008KT 150V220 6000 SKC 37/20 Q1000 A2954


Station Type Date Time Source
OMAM Decoded METAR 2019/07/14 06:00 UTC NOAA

Station name not available
Jul 14, 2019 - 02:00 AM EDT / 2019.07.14 0600 UTC
Wind: from the S (180 degrees) at 9 MPH (8 KT) (direction variable):0
Visibility: 3 mile(s):0
Sky conditions: clear
Temperature: 98 F (37 C)
Heat index: 102.9 F (39.4 C):1
Dew Point: 68 F (20 C)
Relative Humidity: 37%
Pressure (altimeter): 29.54 in. Hg (1000 hPa)
ob: OMAM 140600Z 18008KT 150V220 6000 SKC 37/20 Q1000 A2954
cycle: 6

Station Type Date Time Source
OMAM TAF 2015/04/12 06:25 UTC NOAA

TAF OMAM 120525Z 1206/1312 16006KT CAVOK
BECMG 1213/1215 04009KT
BECMG 1221/1223 14006KT
BECMG 1309/1311 31013KT

Example: see airport list